sensor_id;sensor_type;location;lat;lon;timestamp;temperature;humidity
60909;DHT22;46780;48.128;-1.704;2022-11-20T00:00:37;10.30;86.50
60909;DHT22;46780;48.128;-1.704;2022-11-20T00:03:05;10.30;86.00
60909;DHT22;46780;48.128;-1.704;2022-11-20T00:05:32;10.40;85.90
60909;DHT22;46780;48.128;-1.704;2022-11-20T00:07:59;10.40;85.80
60909;DHT22;46780;48.128;-1.704;2022-11-20T00:10:25;10.30;86.20
60909;DHT22;46780;48.128;-1.704;2022-11-20T00:12:51;10.20;87.10
60909;DHT22;46780;48.128;-1.704;2022-11-20T00:15:18;10.20;87.50
60909;DHT22;46780;48.128;-1.704;2022-11-20T00:17:44;10.20;87.30
60909;DHT22;46780;48.128;-1.704;2022-11-20T00:20:13;10.30;87.20
60909;DHT22;46780;48.128;-1.704;2022-11-20T00:22:39;10.20;88.00
60909;DHT22;46780;48.128;-1.704;2022-11-20T00:25:06;10.20;88.40
60909;DHT22;46780;48.128;-1.704;2022-11-20T00:27:33;10.20;88.40
60909;DHT22;46780;48.128;-1.704;2022-11-20T00:29:59;10.20;88.60
60909;DHT22;46780;48.128;-1.704;2022-11-20T00:32:26;10.20;88.60
60909;DHT22;46780;48.128;-1.704;2022-11-20T00:34:52;10.20;88.60
60909;DHT22;46780;48.128;-1.704;2022-11-20T00:37:20;10.40;87.90
60909;DHT22;46780;48.128;-1.704;2022-11-20T00:39:46;10.40;87.70
60909;DHT22;46780;48.128;-1.704;2022-11-20T00:42:13;10.50;87.30
60909;DHT22;46780;48.128;-1.704;2022-11-20T00:44:39;10.60;87.10
60909;DHT22;46780;48.128;-1.704;2022-11-20T00:47:06;10.60;87.10
60909;DHT22;46780;48.128;-1.704;2022-11-20T00:49:32;10.50;87.40
60909;DHT22;46780;48.128;-1.704;2022-11-20T00:51:59;10.40;87.80
60909;DHT22;46780;48.128;-1.704;2022-11-20T00:54:27;10.50;87.80
60909;DHT22;46780;48.128;-1.704;2022-11-20T00:56:53;10.50;87.70
60909;DHT22;46780;48.128;-1.704;2022-11-20T00:59:20;10.50;87.70
60909;DHT22;46780;48.128;-1.704;2022-11-20T01:01:46;10.50;87.80
60909;DHT22;46780;48.128;-1.704;2022-11-20T01:04:13;10.50;88.10
60909;DHT22;46780;48.128;-1.704;2022-11-20T01:06:40;10.40;88.60
60909;DHT22;46780;48.128;-1.704;2022-11-20T01:09:07;10.40;89.00
60909;DHT22;46780;48.128;-1.704;2022-11-20T01:11:38;10.40;89.10
60909;DHT22;46780;48.128;-1.704;2022-11-20T01:14:07;10.40;89.60
60909;DHT22;46780;48.128;-1.704;2022-11-20T01:16:37;10.40;90.00
60909;DHT22;46780;48.128;-1.704;2022-11-20T01:19:06;10.40;90.50
60909;DHT22;46780;48.128;-1.704;2022-11-20T01:21:35;10.40;90.70
60909;DHT22;46780;48.128;-1.704;2022-11-20T01:24:02;10.40;91.20
60909;DHT22;46780;48.128;-1.704;2022-11-20T01:26:30;10.40;91.80
60909;DHT22;46780;48.128;-1.704;2022-11-20T01:28:59;10.40;92.00
60909;DHT22;46780;48.128;-1.704;2022-11-20T01:31:28;10.20;93.00
60909;DHT22;46780;48.128;-1.704;2022-11-20T01:33:56;10.10;93.90
60909;DHT22;46780;48.128;-1.704;2022-11-20T01:36:25;10.10;93.90
60909;DHT22;46780;48.128;-1.704;2022-11-20T01:38:52;10.10;94.20
60909;DHT22;46780;48.128;-1.704;2022-11-20T01:41:19;10.00;94.60
60909;DHT22;46780;48.128;-1.704;2022-11-20T01:43:46;10.00;95.00
60909;DHT22;46780;48.128;-1.704;2022-11-20T01:46:17;10.10;95.30
60909;DHT22;46780;48.128;-1.704;2022-11-20T01:48:48;10.10;95.40
60909;DHT22;46780;48.128;-1.704;2022-11-20T01:51:23;10.10;95.90
60909;DHT22;46780;48.128;-1.704;2022-11-20T01:53:53;10.20;95.30
60909;DHT22;46780;48.128;-1.704;2022-11-20T01:56:20;10.10;95.30
60909;DHT22;46780;48.128;-1.704;2022-11-20T01:58:50;10.20;95.40
60909;DHT22;46780;48.128;-1.704;2022-11-20T02:01:18;10.20;95.30
60909;DHT22;46780;48.128;-1.704;2022-11-20T02:03:46;10.20;95.80
60909;DHT22;46780;48.128;-1.704;2022-11-20T02:06:17;10.20;95.70
60909;DHT22;46780;48.128;-1.704;2022-11-20T02:08:45;10.10;96.20
60909;DHT22;46780;48.128;-1.704;2022-11-20T02:11:12;10.10;96.50
60909;DHT22;46780;48.128;-1.704;2022-11-20T02:13:39;10.10;97.00
60909;DHT22;46780;48.128;-1.704;2022-11-20T02:16:10;10.00;97.80
60909;DHT22;46780;48.128;-1.704;2022-11-20T02:18:38;10.00;98.00
60909;DHT22;46780;48.128;-1.704;2022-11-20T02:21:11;10.00;98.30
60909;DHT22;46780;48.128;-1.704;2022-11-20T02:26:13;10.10;98.60
60909;DHT22;46780;48.128;-1.704;2022-11-20T02:28:41;10.00;99.20
60909;DHT22;46780;48.128;-1.704;2022-11-20T02:31:08;10.00;99.90
60909;DHT22;46780;48.128;-1.704;2022-11-20T02:33:34;10.00;99.90
60909;DHT22;46780;48.128;-1.704;2022-11-20T02:36:01;10.00;99.90
60909;DHT22;46780;48.128;-1.704;2022-11-20T02:38:27;10.10;99.90
60909;DHT22;46780;48.128;-1.704;2022-11-20T02:40:54;10.00;99.90
60909;DHT22;46780;48.128;-1.704;2022-11-20T02:43:22;10.00;99.90
60909;DHT22;46780;48.128;-1.704;2022-11-20T02:45:49;10.10;99.90
60909;DHT22;46780;48.128;-1.704;2022-11-20T02:48:15;10.00;99.90
60909;DHT22;46780;48.128;-1.704;2022-11-20T02:50:42;10.00;99.90
60909;DHT22;46780;48.128;-1.704;2022-11-20T02:53:08;10.00;99.90
60909;DHT22;46780;48.128;-1.704;2022-11-20T02:55:35;10.00;99.90
60909;DHT22;46780;48.128;-1.704;2022-11-20T02:58:01;10.00;99.90
60909;DHT22;46780;48.128;-1.704;2022-11-20T03:00:29;10.00;99.90
60909;DHT22;46780;48.128;-1.704;2022-11-20T03:02:56;9.90;99.90
60909;DHT22;46780;48.128;-1.704;2022-11-20T03:05:22;9.90;99.90
60909;DHT22;46780;48.128;-1.704;2022-11-20T03:07:49;9.90;99.90
60909;DHT22;46780;48.128;-1.704;2022-11-20T03:10:15;10.10;99.90
60909;DHT22;46780;48.128;-1.704;2022-11-20T03:12:42;10.00;99.90
60909;DHT22;46780;48.128;-1.704;2022-11-20T03:15:09;9.90;99.90
60909;DHT22;46780;48.128;-1.704;2022-11-20T03:17:37;10.00;99.90
60909;DHT22;46780;48.128;-1.704;2022-11-20T03:20:04;10.00;99.90
60909;DHT22;46780;48.128;-1.704;2022-11-20T03:22:31;10.10;99.90
60909;DHT22;46780;48.128;-1.704;2022-11-20T03:24:57;10.10;99.90
60909;DHT22;46780;48.128;-1.704;2022-11-20T03:27:24;10.10;99.90
60909;DHT22;46780;48.128;-1.704;2022-11-20T03:29:50;10.10;99.90
60909;DHT22;46780;48.128;-1.704;2022-11-20T03:32:17;10.10;99.90
60909;DHT22;46780;48.128;-1.704;2022-11-20T03:34:44;10.20;99.90
60909;DHT22;46780;48.128;-1.704;2022-11-20T03:37:11;10.00;99.90
60909;DHT22;46780;48.128;-1.704;2022-11-20T03:39:37;10.00;99.90
60909;DHT22;46780;48.128;-1.704;2022-11-20T03:42:04;9.90;99.90
60909;DHT22;46780;48.128;-1.704;2022-11-20T03:44:30;9.90;99.90
60909;DHT22;46780;48.128;-1.704;2022-11-20T03:46:57;9.90;99.90
60909;DHT22;46780;48.128;-1.704;2022-11-20T03:49:23;9.80;99.90
60909;DHT22;46780;48.128;-1.704;2022-11-20T03:51:51;9.90;99.90
60909;DHT22;46780;48.128;-1.704;2022-11-20T03:54:17;9.90;99.90
60909;DHT22;46780;48.128;-1.704;2022-11-20T03:56:44;10.00;99.90
60909;DHT22;46780;48.128;-1.704;2022-11-20T03:59:11;9.90;99.90
60909;DHT22;46780;48.128;-1.704;2022-11-20T04:01:37;9.90;99.90
60909;DHT22;46780;48.128;-1.704;2022-11-20T04:04:06;9.90;99.90
60909;DHT22;46780;48.128;-1.704;2022-11-20T04:06:35;10.00;99.90
60909;DHT22;46780;48.128;-1.704;2022-11-20T04:09:06;10.00;99.90
60909;DHT22;46780;48.128;-1.704;2022-11-20T04:11:37;10.00;99.90
60909;DHT22;46780;48.128;-1.704;2022-11-20T04:14:13;10.00;99.90
60909;DHT22;46780;48.128;-1.704;2022-11-20T04:16:42;10.00;99.90
60909;DHT22;46780;48.128;-1.704;2022-11-20T04:19:14;10.00;99.90
60909;DHT22;46780;48.128;-1.704;2022-11-20T04:21:43;10.10;99.90
60909;DHT22;46780;48.128;-1.704;2022-11-20T04:24:13;10.10;99.90
60909;DHT22;46780;48.128;-1.704;2022-11-20T04:26:41;10.10;99.90
60909;DHT22;46780;48.128;-1.704;2022-11-20T04:29:10;10.10;99.90
60909;DHT22;46780;48.128;-1.704;2022-11-20T04:31:37;10.20;99.90
60909;DHT22;46780;48.128;-1.704;2022-11-20T04:34:06;10.20;99.90
60909;DHT22;46780;48.128;-1.704;2022-11-20T04:36:33;10.10;99.90
60909;DHT22;46780;48.128;-1.704;2022-11-20T04:39:03;10.00;99.90
60909;DHT22;46780;48.128;-1.704;2022-11-20T04:41:32;10.10;99.90
60909;DHT22;46780;48.128;-1.704;2022-11-20T04:44:01;10.10;99.90
60909;DHT22;46780;48.128;-1.704;2022-11-20T04:46:28;10.20;99.90
60909;DHT22;46780;48.128;-1.704;2022-11-20T04:48:56;10.20;99.90
60909;DHT22;46780;48.128;-1.704;2022-11-20T04:51:23;10.20;99.90
60909;DHT22;46780;48.128;-1.704;2022-11-20T04:53:49;10.20;99.90
60909;DHT22;46780;48.128;-1.704;2022-11-20T04:56:17;10.30;99.90
60909;DHT22;46780;48.128;-1.704;2022-11-20T04:58:45;10.40;99.90
60909;DHT22;46780;48.128;-1.704;2022-11-20T05:01:13;10.30;99.90
60909;DHT22;46780;48.128;-1.704;2022-11-20T05:03:41;10.30;99.90
60909;DHT22;46780;48.128;-1.704;2022-11-20T05:06:09;10.30;99.90
60909;DHT22;46780;48.128;-1.704;2022-11-20T05:08:36;10.40;99.90
60909;DHT22;46780;48.128;-1.704;2022-11-20T05:11:04;10.40;99.90
60909;DHT22;46780;48.128;-1.704;2022-11-20T05:13:31;10.40;99.90
60909;DHT22;46780;48.128;-1.704;2022-11-20T05:16:03;10.40;99.90
60909;DHT22;46780;48.128;-1.704;2022-11-20T05:18:29;10.40;99.90
60909;DHT22;46780;48.128;-1.704;2022-11-20T05:20:56;10.50;99.90
60909;DHT22;46780;48.128;-1.704;2022-11-20T05:23:23;10.50;99.90
60909;DHT22;46780;48.128;-1.704;2022-11-20T05:25:52;10.50;99.90
60909;DHT22;46780;48.128;-1.704;2022-11-20T05:28:19;10.40;99.90
60909;DHT22;46780;48.128;-1.704;2022-11-20T05:30:45;10.50;99.90
60909;DHT22;46780;48.128;-1.704;2022-11-20T05:33:13;10.40;99.90
60909;DHT22;46780;48.128;-1.704;2022-11-20T05:35:40;10.40;99.90
60909;DHT22;46780;48.128;-1.704;2022-11-20T05:38:07;10.40;99.90
60909;DHT22;46780;48.128;-1.704;2022-11-20T05:40:33;10.40;99.90
60909;DHT22;46780;48.128;-1.704;2022-11-20T05:43:00;10.40;99.90
60909;DHT22;46780;48.128;-1.704;2022-11-20T05:45:27;10.50;99.90
60909;DHT22;46780;48.128;-1.704;2022-11-20T05:47:53;10.40;99.90
60909;DHT22;46780;48.128;-1.704;2022-11-20T05:50:21;10.50;99.90
60909;DHT22;46780;48.128;-1.704;2022-11-20T05:52:47;10.40;99.90
60909;DHT22;46780;48.128;-1.704;2022-11-20T05:55:14;10.50;99.90
60909;DHT22;46780;48.128;-1.704;2022-11-20T05:57:40;10.60;99.90
60909;DHT22;46780;48.128;-1.704;2022-11-20T06:00:08;10.70;99.90
60909;DHT22;46780;48.128;-1.704;2022-11-20T06:02:35;10.60;99.90
60909;DHT22;46780;48.128;-1.704;2022-11-20T06:05:02;10.70;99.90
60909;DHT22;46780;48.128;-1.704;2022-11-20T06:07:30;10.80;99.90
60909;DHT22;46780;48.128;-1.704;2022-11-20T06:09:57;10.80;99.90
60909;DHT22;46780;48.128;-1.704;2022-11-20T06:12:24;10.80;99.90
60909;DHT22;46780;48.128;-1.704;2022-11-20T06:14:50;10.90;99.90
60909;DHT22;46780;48.128;-1.704;2022-11-20T06:17:17;10.90;99.90
60909;DHT22;46780;48.128;-1.704;2022-11-20T06:19:43;10.90;99.90
60909;DHT22;46780;48.128;-1.704;2022-11-20T06:22:09;11.00;99.90
60909;DHT22;46780;48.128;-1.704;2022-11-20T06:24:37;11.00;99.90
60909;DHT22;46780;48.128;-1.704;2022-11-20T06:27:04;11.00;99.90
60909;DHT22;46780;48.128;-1.704;2022-11-20T06:29:30;11.10;99.90
60909;DHT22;46780;48.128;-1.704;2022-11-20T06:31:57;11.10;99.90
60909;DHT22;46780;48.128;-1.704;2022-11-20T06:34:23;11.20;99.90
60909;DHT22;46780;48.128;-1.704;2022-11-20T06:36:49;11.20;99.90
60909;DHT22;46780;48.128;-1.704;2022-11-20T06:39:16;11.20;99.90
60909;DHT22;46780;48.128;-1.704;2022-11-20T06:41:44;11.10;99.90
60909;DHT22;46780;48.128;-1.704;2022-11-20T06:44:10;11.10;99.90
60909;DHT22;46780;48.128;-1.704;2022-11-20T06:46:37;11.00;99.90
60909;DHT22;46780;48.128;-1.704;2022-11-20T06:49:03;11.00;99.90
60909;DHT22;46780;48.128;-1.704;2022-11-20T06:51:30;11.00;99.90
60909;DHT22;46780;48.128;-1.704;2022-11-20T06:53:56;11.00;99.90
60909;DHT22;46780;48.128;-1.704;2022-11-20T06:56:23;11.00;99.90
60909;DHT22;46780;48.128;-1.704;2022-11-20T06:58:51;11.00;99.90
60909;DHT22;46780;48.128;-1.704;2022-11-20T07:01:17;11.00;99.90
60909;DHT22;46780;48.128;-1.704;2022-11-20T07:03:44;10.90;99.90
60909;DHT22;46780;48.128;-1.704;2022-11-20T07:06:11;10.90;99.90
60909;DHT22;46780;48.128;-1.704;2022-11-20T07:08:37;10.80;99.90
60909;DHT22;46780;48.128;-1.704;2022-11-20T07:11:05;10.80;99.90
60909;DHT22;46780;48.128;-1.704;2022-11-20T07:13:32;10.70;99.90
60909;DHT22;46780;48.128;-1.704;2022-11-20T07:16:01;10.70;99.90
60909;DHT22;46780;48.128;-1.704;2022-11-20T07:18:28;10.60;99.90
60909;DHT22;46780;48.128;-1.704;2022-11-20T07:20:54;10.60;99.90
60909;DHT22;46780;48.128;-1.704;2022-11-20T07:23:21;10.60;99.90
60909;DHT22;46780;48.128;-1.704;2022-11-20T07:25:47;10.70;99.90
60909;DHT22;46780;48.128;-1.704;2022-11-20T07:28:14;10.60;99.90
60909;DHT22;46780;48.128;-1.704;2022-11-20T07:30:40;10.60;99.90
60909;DHT22;46780;48.128;-1.704;2022-11-20T07:33:08;10.60;99.90
60909;DHT22;46780;48.128;-1.704;2022-11-20T07:35:35;10.60;99.90
60909;DHT22;46780;48.128;-1.704;2022-11-20T07:38:01;10.60;99.90
60909;DHT22;46780;48.128;-1.704;2022-11-20T07:40:27;10.60;99.90
60909;DHT22;46780;48.128;-1.704;2022-11-20T07:42:55;10.60;99.90
60909;DHT22;46780;48.128;-1.704;2022-11-20T07:45:22;10.60;99.90
60909;DHT22;46780;48.128;-1.704;2022-11-20T07:47:49;10.60;99.90
60909;DHT22;46780;48.128;-1.704;2022-11-20T07:50:17;10.70;99.90
60909;DHT22;46780;48.128;-1.704;2022-11-20T07:52:44;10.70;99.90
60909;DHT22;46780;48.128;-1.704;2022-11-20T07:55:11;10.70;99.90
60909;DHT22;46780;48.128;-1.704;2022-11-20T07:57:37;10.80;99.90
60909;DHT22;46780;48.128;-1.704;2022-11-20T08:00:06;10.90;99.90
60909;DHT22;46780;48.128;-1.704;2022-11-20T08:02:32;10.90;99.90
60909;DHT22;46780;48.128;-1.704;2022-11-20T08:04:59;10.90;99.90
60909;DHT22;46780;48.128;-1.704;2022-11-20T08:07:27;10.90;99.90
60909;DHT22;46780;48.128;-1.704;2022-11-20T08:09:53;10.80;99.90
60909;DHT22;46780;48.128;-1.704;2022-11-20T08:12:20;10.70;99.90
60909;DHT22;46780;48.128;-1.704;2022-11-20T08:14:47;10.70;99.90
60909;DHT22;46780;48.128;-1.704;2022-11-20T08:17:13;10.70;99.90
60909;DHT22;46780;48.128;-1.704;2022-11-20T08:19:40;10.80;99.90
60909;DHT22;46780;48.128;-1.704;2022-11-20T08:22:06;10.70;99.90
60909;DHT22;46780;48.128;-1.704;2022-11-20T08:24:34;10.70;99.90
60909;DHT22;46780;48.128;-1.704;2022-11-20T08:27:00;10.70;99.90
60909;DHT22;46780;48.128;-1.704;2022-11-20T08:29:27;10.80;99.90
60909;DHT22;46780;48.128;-1.704;2022-11-20T08:31:53;11.00;99.90
60909;DHT22;46780;48.128;-1.704;2022-11-20T08:34:20;11.20;99.90
60909;DHT22;46780;48.128;-1.704;2022-11-20T08:36:46;11.60;99.90
60909;DHT22;46780;48.128;-1.704;2022-11-20T08:39:13;12.00;99.90
60909;DHT22;46780;48.128;-1.704;2022-11-20T08:41:41;12.20;99.90
60909;DHT22;46780;48.128;-1.704;2022-11-20T08:44:08;12.50;99.90
60909;DHT22;46780;48.128;-1.704;2022-11-20T08:46:35;12.60;99.90
60909;DHT22;46780;48.128;-1.704;2022-11-20T08:49:02;12.70;99.90
60909;DHT22;46780;48.128;-1.704;2022-11-20T08:51:29;12.90;99.90
60909;DHT22;46780;48.128;-1.704;2022-11-20T08:53:56;13.00;99.90
60909;DHT22;46780;48.128;-1.704;2022-11-20T08:56:22;13.10;99.90
60909;DHT22;46780;48.128;-1.704;2022-11-20T08:58:51;13.20;99.90
60909;DHT22;46780;48.128;-1.704;2022-11-20T09:01:18;13.30;99.90
60909;DHT22;46780;48.128;-1.704;2022-11-20T09:03:45;13.50;99.90
60909;DHT22;46780;48.128;-1.704;2022-11-20T09:06:12;13.60;99.90
60909;DHT22;46780;48.128;-1.704;2022-11-20T09:08:39;13.80;99.90
60909;DHT22;46780;48.128;-1.704;2022-11-20T09:11:06;14.00;99.90
60909;DHT22;46780;48.128;-1.704;2022-11-20T09:13:34;14.30;99.90
60909;DHT22;46780;48.128;-1.704;2022-11-20T09:16:04;14.60;99.40
60909;DHT22;46780;48.128;-1.704;2022-11-20T09:18:31;14.80;98.30
60909;DHT22;46780;48.128;-1.704;2022-11-20T09:20:58;14.90;95.10
60909;DHT22;46780;48.128;-1.704;2022-11-20T09:23:25;15.00;95.10
60909;DHT22;46780;48.128;-1.704;2022-11-20T09:25:52;15.10;94.40
60909;DHT22;46780;48.128;-1.704;2022-11-20T09:28:18;15.30;94.50
60909;DHT22;46780;48.128;-1.704;2022-11-20T09:30:45;15.50;92.60
60909;DHT22;46780;48.128;-1.704;2022-11-20T09:33:13;15.60;91.50
60909;DHT22;46780;48.128;-1.704;2022-11-20T09:35:39;15.70;91.60
60909;DHT22;46780;48.128;-1.704;2022-11-20T09:38:06;15.80;90.90
60909;DHT22;46780;48.128;-1.704;2022-11-20T09:40:34;15.90;89.50
60909;DHT22;46780;48.128;-1.704;2022-11-20T09:43:04;15.80;89.10
60909;DHT22;46780;48.128;-1.704;2022-11-20T09:45:53;15.80;87.90
60909;DHT22;46780;48.128;-1.704;2022-11-20T09:48:36;15.70;87.60
60909;DHT22;46780;48.128;-1.704;2022-11-20T09:51:13;15.60;89.00
60909;DHT22;46780;48.128;-1.704;2022-11-20T09:53:52;15.70;88.60
60909;DHT22;46780;48.128;-1.704;2022-11-20T09:56:20;15.80;87.30
60909;DHT22;46780;48.128;-1.704;2022-11-20T09:58:49;16.00;87.70
60909;DHT22;46780;48.128;-1.704;2022-11-20T10:01:17;16.30;86.40
60909;DHT22;46780;48.128;-1.704;2022-11-20T10:03:53;16.50;85.20
60909;DHT22;46780;48.128;-1.704;2022-11-20T10:06:26;16.50;83.10
60909;DHT22;46780;48.128;-1.704;2022-11-20T10:09:05;16.30;82.80
60909;DHT22;46780;48.128;-1.704;2022-11-20T10:11:40;15.90;81.60
60909;DHT22;46780;48.128;-1.704;2022-11-20T10:14:18;15.60;84.00
60909;DHT22;46780;48.128;-1.704;2022-11-20T10:16:56;15.40;85.70
60909;DHT22;46780;48.128;-1.704;2022-11-20T10:19:41;15.40;87.70
60909;DHT22;46780;48.128;-1.704;2022-11-20T10:22:20;15.50;87.00
60909;DHT22;46780;48.128;-1.704;2022-11-20T10:24:56;15.60;87.30
60909;DHT22;46780;48.128;-1.704;2022-11-20T10:30:37;15.50;85.60
60909;DHT22;46780;48.128;-1.704;2022-11-20T10:33:11;15.60;85.90
60909;DHT22;46780;48.128;-1.704;2022-11-20T10:35:43;15.70;85.70
60909;DHT22;46780;48.128;-1.704;2022-11-20T10:38:16;15.80;84.60
60909;DHT22;46780;48.128;-1.704;2022-11-20T10:40:47;15.90;83.70
60909;DHT22;46780;48.128;-1.704;2022-11-20T10:43:18;15.90;83.30
60909;DHT22;46780;48.128;-1.704;2022-11-20T10:45:53;15.90;84.50
60909;DHT22;46780;48.128;-1.704;2022-11-20T10:48:23;16.00;83.60
60909;DHT22;46780;48.128;-1.704;2022-11-20T10:51:07;16.00;82.60
60909;DHT22;46780;48.128;-1.704;2022-11-20T10:53:47;15.80;82.20
60909;DHT22;46780;48.128;-1.704;2022-11-20T10:56:21;15.70;84.00
60909;DHT22;46780;48.128;-1.704;2022-11-20T10:59:08;15.70;84.20
60909;DHT22;46780;48.128;-1.704;2022-11-20T11:01:40;15.70;84.20
60909;DHT22;46780;48.128;-1.704;2022-11-20T11:04:28;15.70;84.70
60909;DHT22;46780;48.128;-1.704;2022-11-20T11:07:05;15.90;85.20
60909;DHT22;46780;48.128;-1.704;2022-11-20T11:09:35;16.00;82.60
60909;DHT22;46780;48.128;-1.704;2022-11-20T11:12:07;16.10;81.20
60909;DHT22;46780;48.128;-1.704;2022-11-20T11:14:46;16.20;80.20
60909;DHT22;46780;48.128;-1.704;2022-11-20T11:17:27;16.40;78.10
60909;DHT22;46780;48.128;-1.704;2022-11-20T11:20:03;16.60;78.10
60909;DHT22;46780;48.128;-1.704;2022-11-20T11:22:33;16.90;75.70
60909;DHT22;46780;48.128;-1.704;2022-11-20T11:25:00;17.10;73.00
60909;DHT22;46780;48.128;-1.704;2022-11-20T11:27:27;17.20;71.20
60909;DHT22;46780;48.128;-1.704;2022-11-20T11:30:03;17.20;71.80
60909;DHT22;46780;48.128;-1.704;2022-11-20T11:32:37;17.00;72.40
60909;DHT22;46780;48.128;-1.704;2022-11-20T11:35:05;16.70;74.30
60909;DHT22;46780;48.128;-1.704;2022-11-20T11:37:35;16.60;74.00
60909;DHT22;46780;48.128;-1.704;2022-11-20T11:40:03;16.30;73.70
60909;DHT22;46780;48.128;-1.704;2022-11-20T11:42:30;16.20;76.20
60909;DHT22;46780;48.128;-1.704;2022-11-20T11:44:59;16.20;79.30
60909;DHT22;46780;48.128;-1.704;2022-11-20T11:47:29;16.80;75.40
60909;DHT22;46780;48.128;-1.704;2022-11-20T11:50:18;17.50;72.50
60909;DHT22;46780;48.128;-1.704;2022-11-20T11:52:51;18.10;66.80
60909;DHT22;46780;48.128;-1.704;2022-11-20T11:55:28;18.30;64.10
60909;DHT22;46780;48.128;-1.704;2022-11-20T11:58:01;18.40;63.90
60909;DHT22;46780;48.128;-1.704;2022-11-20T12:00:31;18.70;60.60
60909;DHT22;46780;48.128;-1.704;2022-11-20T12:03:05;18.80;60.00
60909;DHT22;46780;48.128;-1.704;2022-11-20T12:05:38;18.80;59.20
60909;DHT22;46780;48.128;-1.704;2022-11-20T12:08:14;18.70;57.80
60909;DHT22;46780;48.128;-1.704;2022-11-20T12:10:46;18.80;58.20
60909;DHT22;46780;48.128;-1.704;2022-11-20T12:13:24;19.10;57.50
60909;DHT22;46780;48.128;-1.704;2022-11-20T12:15:53;19.30;56.20
60909;DHT22;46780;48.128;-1.704;2022-11-20T12:18:21;19.60;54.90
60909;DHT22;46780;48.128;-1.704;2022-11-20T12:20:59;19.50;53.50
60909;DHT22;46780;48.128;-1.704;2022-11-20T12:23:36;19.60;53.40
60909;DHT22;46780;48.128;-1.704;2022-11-20T12:26:12;19.60;52.60
60909;DHT22;46780;48.128;-1.704;2022-11-20T12:28:48;19.60;53.40
60909;DHT22;46780;48.128;-1.704;2022-11-20T12:31:37;19.40;52.20
60909;DHT22;46780;48.128;-1.704;2022-11-20T12:34:36;19.20;53.90
60909;DHT22;46780;48.128;-1.704;2022-11-20T12:37:11;18.80;54.10
60909;DHT22;46780;48.128;-1.704;2022-11-20T12:39:47;18.40;54.70
60909;DHT22;46780;48.128;-1.704;2022-11-20T12:42:36;18.40;54.60
60909;DHT22;46780;48.128;-1.704;2022-11-20T12:45:30;18.70;55.90
60909;DHT22;46780;48.128;-1.704;2022-11-20T12:51:15;19.30;52.10
60909;DHT22;46780;48.128;-1.704;2022-11-20T12:53:52;19.30;52.20
60909;DHT22;46780;48.128;-1.704;2022-11-20T12:56:31;19.20;53.00
60909;DHT22;46780;48.128;-1.704;2022-11-20T12:59:21;19.10;53.00
60909;DHT22;46780;48.128;-1.704;2022-11-20T13:01:53;18.60;54.30
60909;DHT22;46780;48.128;-1.704;2022-11-20T13:04:38;18.20;55.40
60909;DHT22;46780;48.128;-1.704;2022-11-20T13:07:09;17.60;56.90
60909;DHT22;46780;48.128;-1.704;2022-11-20T13:09:39;17.30;59.20
60909;DHT22;46780;48.128;-1.704;2022-11-20T13:12:11;17.40;61.30
60909;DHT22;46780;48.128;-1.704;2022-11-20T13:14:42;17.80;60.80
60909;DHT22;46780;48.128;-1.704;2022-11-20T13:17:14;17.60;58.70
60909;DHT22;46780;48.128;-1.704;2022-11-20T13:19:47;17.80;58.50
60909;DHT22;46780;48.128;-1.704;2022-11-20T13:22:24;18.10;57.80
60909;DHT22;46780;48.128;-1.704;2022-11-20T13:24:51;18.50;54.90
60909;DHT22;46780;48.128;-1.704;2022-11-20T13:27:20;19.00;53.90
60909;DHT22;46780;48.128;-1.704;2022-11-20T13:29:59;19.30;52.10
60909;DHT22;46780;48.128;-1.704;2022-11-20T13:32:27;19.40;49.90
60909;DHT22;46780;48.128;-1.704;2022-11-20T13:34:54;19.40;50.80
60909;DHT22;46780;48.128;-1.704;2022-11-20T13:37:28;19.20;50.90
60909;DHT22;46780;48.128;-1.704;2022-11-20T13:40:20;18.90;51.60
60909;DHT22;46780;48.128;-1.704;2022-11-20T13:42:56;18.50;51.10
60909;DHT22;46780;48.128;-1.704;2022-11-20T13:45:25;18.00;51.90
60909;DHT22;46780;48.128;-1.704;2022-11-20T13:47:53;17.50;52.90
60909;DHT22;46780;48.128;-1.704;2022-11-20T13:50:38;17.10;54.50
60909;DHT22;46780;48.128;-1.704;2022-11-20T13:53:15;16.90;55.00
60909;DHT22;46780;48.128;-1.704;2022-11-20T13:55:54;16.70;55.70
60909;DHT22;46780;48.128;-1.704;2022-11-20T13:58:30;16.50;56.70
60909;DHT22;46780;48.128;-1.704;2022-11-20T14:01:09;16.70;56.90
60909;DHT22;46780;48.128;-1.704;2022-11-20T14:03:36;16.90;57.40
60909;DHT22;46780;48.128;-1.704;2022-11-20T14:06:10;17.20;56.70
60909;DHT22;46780;48.128;-1.704;2022-11-20T14:08:40;17.30;56.00
60909;DHT22;46780;48.128;-1.704;2022-11-20T14:11:14;17.40;56.00
60909;DHT22;46780;48.128;-1.704;2022-11-20T14:13:56;17.40;55.50
60909;DHT22;46780;48.128;-1.704;2022-11-20T14:16:24;17.20;56.00
60909;DHT22;46780;48.128;-1.704;2022-11-20T14:18:50;17.20;56.20
60909;DHT22;46780;48.128;-1.704;2022-11-20T14:21:24;17.10;56.40
60909;DHT22;46780;48.128;-1.704;2022-11-20T14:24:03;17.00;57.50
60909;DHT22;46780;48.128;-1.704;2022-11-20T14:26:30;16.90;57.20
60909;DHT22;46780;48.128;-1.704;2022-11-20T14:28:58;16.90;57.70
60909;DHT22;46780;48.128;-1.704;2022-11-20T14:31:26;16.90;56.80
60909;DHT22;46780;48.128;-1.704;2022-11-20T14:33:54;16.90;57.10
60909;DHT22;46780;48.128;-1.704;2022-11-20T14:36:23;17.00;57.00
60909;DHT22;46780;48.128;-1.704;2022-11-20T14:38:51;16.90;57.20
60909;DHT22;46780;48.128;-1.704;2022-11-20T14:41:19;17.00;57.40
60909;DHT22;46780;48.128;-1.704;2022-11-20T14:43:49;16.90;57.70
60909;DHT22;46780;48.128;-1.704;2022-11-20T14:46:18;16.80;58.30
60909;DHT22;46780;48.128;-1.704;2022-11-20T14:48:47;16.70;58.70
60909;DHT22;46780;48.128;-1.704;2022-11-20T14:51:28;16.60;59.60
60909;DHT22;46780;48.128;-1.704;2022-11-20T14:53:55;16.50;59.90
60909;DHT22;46780;48.128;-1.704;2022-11-20T14:56:22;16.40;60.00
60909;DHT22;46780;48.128;-1.704;2022-11-20T14:58:55;16.30;60.10
60909;DHT22;46780;48.128;-1.704;2022-11-20T15:01:27;16.30;60.90
60909;DHT22;46780;48.128;-1.704;2022-11-20T15:04:00;16.10;60.80
60909;DHT22;46780;48.128;-1.704;2022-11-20T15:06:27;15.90;61.90
60909;DHT22;46780;48.128;-1.704;2022-11-20T15:08:54;15.70;62.10
60909;DHT22;46780;48.128;-1.704;2022-11-20T15:11:25;15.50;62.90
60909;DHT22;46780;48.128;-1.704;2022-11-20T15:13:53;15.30;64.20
60909;DHT22;46780;48.128;-1.704;2022-11-20T15:16:21;15.10;65.70
60909;DHT22;46780;48.128;-1.704;2022-11-20T15:18:49;14.90;66.40
60909;DHT22;46780;48.128;-1.704;2022-11-20T15:21:17;14.70;68.00
60909;DHT22;46780;48.128;-1.704;2022-11-20T15:23:44;14.60;69.00
60909;DHT22;46780;48.128;-1.704;2022-11-20T15:26:12;14.50;70.30
60909;DHT22;46780;48.128;-1.704;2022-11-20T15:28:40;14.40;71.10
60909;DHT22;46780;48.128;-1.704;2022-11-20T15:31:11;14.30;72.10
60909;DHT22;46780;48.128;-1.704;2022-11-20T15:33:38;14.30;72.70
60909;DHT22;46780;48.128;-1.704;2022-11-20T15:36:06;14.10;73.70
60909;DHT22;46780;48.128;-1.704;2022-11-20T15:38:33;14.00;74.70
60909;DHT22;46780;48.128;-1.704;2022-11-20T15:40:59;13.90;75.70